createdAt,value
2018-06-14T00:00:41.062Z,61.77
2018-06-14T00:02:16.681Z,61.70
2018-06-14T00:03:52.674Z,61.73
2018-06-14T00:05:28.279Z,61.32
2018-06-14T00:07:05.106Z,61.33
2018-06-14T00:08:40.702Z,61.32
2018-06-14T00:10:16.324Z,61.50
2018-06-14T00:11:51.892Z,61.82
2018-06-14T00:13:27.508Z,61.82
2018-06-14T00:15:03.208Z,61.92
2018-06-14T00:16:38.832Z,61.95
2018-06-14T00:18:14.428Z,62.13
2018-06-14T00:19:50.075Z,62.21
2018-06-14T00:21:25.683Z,61.90
2018-06-14T00:23:01.329Z,61.97
2018-06-14T00:24:36.930Z,62.21
2018-06-14T00:26:12.546Z,62.49
2018-06-14T00:27:48.138Z,62.83
2018-06-14T00:29:23.752Z,63.01
2018-06-14T00:30:59.356Z,63.01
2018-06-14T00:32:34.936Z,63.32
2018-06-14T00:34:10.554Z,63.23
2018-06-14T00:35:46.124Z,63.09
2018-06-14T00:37:21.948Z,63.45
2018-06-14T00:38:57.487Z,63.28
2018-06-14T00:40:33.239Z,63.08
2018-06-14T00:42:08.875Z,63.00
2018-06-14T00:43:44.417Z,63.38
2018-06-14T00:45:20.015Z,63.27
2018-06-14T00:46:55.603Z,63.60
2018-06-14T00:48:31.183Z,63.47
2018-06-14T00:50:06.775Z,63.32
2018-06-14T00:51:42.396Z,63.40
2018-06-14T00:53:17.980Z,63.17
2018-06-14T00:54:53.574Z,63.04
2018-06-14T00:56:31.277Z,63.11
2018-06-14T00:58:06.858Z,63.23
2018-06-14T00:59:42.560Z,62.82
2018-06-14T01:01:18.244Z,62.68
2018-06-14T01:02:53.883Z,62.52
2018-06-14T01:04:29.623Z,63.44
2018-06-14T01:06:05.306Z,63.31
2018-06-14T01:07:40.893Z,63.38
2018-06-14T01:09:16.523Z,63.60
2018-06-14T01:10:52.111Z,63.29
2018-06-14T01:12:27.746Z,63.61
2018-06-14T01:14:03.325Z,63.59
2018-06-14T01:15:38.942Z,64.10
2018-06-14T01:17:14.526Z,64.29
2018-06-14T01:18:50.104Z,63.65
2018-06-14T01:20:25.676Z,63.36
2018-06-14T01:22:01.285Z,63.35
2018-06-14T01:23:36.862Z,63.53
2018-06-14T01:25:12.518Z,63.63
2018-06-14T01:26:48.117Z,63.68
2018-06-14T01:28:23.736Z,63.79
2018-06-14T01:29:59.330Z,63.63
2018-06-14T01:31:34.942Z,63.75
2018-06-14T01:33:10.608Z,63.77
2018-06-14T01:34:46.162Z,63.92
2018-06-14T01:36:21.851Z,63.91
2018-06-14T01:38:08.519Z,64.13
2018-06-14T01:39:44.161Z,64.22
2018-06-14T01:41:19.816Z,64.14
2018-06-14T01:42:55.395Z,64.26
2018-06-14T01:44:31.003Z,63.89
2018-06-14T01:46:06.602Z,64.38
2018-06-14T01:47:42.188Z,64.37
2018-06-14T01:49:18.084Z,64.78
2018-06-14T01:50:53.649Z,65.10
2018-06-14T01:52:29.287Z,64.97
2018-06-14T01:54:04.899Z,64.88
2018-06-14T01:55:40.553Z,65.19
2018-06-14T01:57:16.159Z,65.49
2018-06-14T01:58:51.723Z,65.67
2018-06-14T02:00:27.337Z,65.22
2018-06-14T02:02:02.913Z,64.73
2018-06-14T02:03:38.526Z,64.79
2018-06-14T02:05:14.303Z,64.90
2018-06-14T02:06:49.870Z,64.68
2018-06-14T02:08:25.491Z,64.91
2018-06-14T02:10:01.167Z,64.74
2018-06-14T02:11:36.777Z,65.08
2018-06-14T02:13:12.360Z,64.66
2018-06-14T02:14:49.013Z,64.48
2018-06-14T02:16:24.685Z,64.52
2018-06-14T02:18:00.554Z,64.38
2018-06-14T02:19:36.237Z,64.15
2018-06-14T02:21:11.848Z,64.34
2018-06-14T02:22:47.429Z,64.18
2018-06-14T02:24:23.302Z,64.29
2018-06-14T02:25:58.895Z,64.05
2018-06-14T02:27:34.503Z,64.23
2018-06-14T02:29:10.152Z,64.69
2018-06-14T02:30:45.792Z,64.26
2018-06-14T02:32:21.433Z,64.44
2018-06-14T02:33:57.003Z,63.82
2018-06-14T02:35:32.579Z,63.69
2018-06-14T02:37:08.214Z,63.30
2018-06-14T02:38:43.825Z,63.49
2018-06-14T02:40:19.417Z,63.52
2018-06-14T02:41:55.069Z,63.55
2018-06-14T02:43:30.677Z,64.80
2018-06-14T02:45:06.531Z,64.84
2018-06-14T02:46:42.106Z,64.62
2018-06-14T02:48:18.094Z,64.82
2018-06-14T02:49:53.691Z,63.90
2018-06-14T02:51:29.325Z,63.77
2018-06-14T02:53:04.853Z,64.08
2018-06-14T02:54:40.416Z,64.11
2018-06-14T02:56:15.997Z,63.84
2018-06-14T02:57:51.596Z,64.08
2018-06-14T02:59:27.207Z,64.23
2018-06-14T03:01:02.823Z,64.17
2018-06-14T03:02:38.406Z,64.51
2018-06-14T03:04:13.973Z,64.04
2018-06-14T03:05:49.566Z,64.20
2018-06-14T03:07:30.377Z,64.08
2018-06-14T03:09:07.710Z,63.87
2018-06-14T03:10:43.255Z,63.65
2018-06-14T03:12:18.816Z,63.46
2018-06-14T03:13:54.341Z,63.17
2018-06-14T03:15:29.988Z,63.39
2018-06-14T03:17:05.621Z,63.04
2018-06-14T03:18:41.205Z,62.68
2018-06-14T03:20:20.072Z,62.87
2018-06-14T03:21:55.656Z,63.41
2018-06-14T03:23:31.662Z,63.14
2018-06-14T03:25:07.206Z,63.08
2018-06-14T03:26:42.811Z,63.63
2018-06-14T03:28:18.379Z,63.92
2018-06-14T03:29:53.978Z,63.99
2018-06-14T03:31:29.624Z,63.89
2018-06-14T03:33:05.195Z,64.35
2018-06-14T03:34:40.769Z,64.18
2018-06-14T03:36:16.340Z,64.78
2018-06-14T03:37:51.986Z,65.06
2018-06-14T03:39:27.635Z,64.78
2018-06-14T03:41:03.243Z,65.07
2018-06-14T03:42:42.766Z,64.86
2018-06-14T03:44:18.333Z,64.99
2018-06-14T03:45:53.894Z,64.77
2018-06-14T03:47:29.561Z,64.10
2018-06-14T03:49:05.221Z,64.01
2018-06-14T03:50:40.786Z,63.83
2018-06-14T03:52:16.368Z,63.39
2018-06-14T03:53:53.109Z,63.86
2018-06-14T03:55:28.768Z,63.26
2018-06-14T03:57:04.399Z,63.16
2018-06-14T03:58:39.983Z,63.00
2018-06-14T04:00:15.603Z,63.00
2018-06-14T04:01:51.218Z,62.84
2018-06-14T04:03:26.768Z,62.76
2018-06-14T04:05:02.848Z,62.08
2018-06-14T04:06:38.410Z,62.25
2018-06-14T04:08:13.997Z,62.07
2018-06-14T04:09:49.592Z,62.48
2018-06-14T04:11:25.123Z,62.25
2018-06-14T04:13:00.686Z,62.16
2018-06-14T04:14:36.250Z,61.91
2018-06-14T04:16:11.984Z,62.31
2018-06-14T04:17:51.706Z,62.31
2018-06-14T04:19:28.267Z,61.95
2018-06-14T04:21:03.803Z,62.13
2018-06-14T04:22:39.420Z,61.82
2018-06-14T04:24:14.941Z,61.98
2018-06-14T04:25:50.464Z,62.19
2018-06-14T04:27:25.996Z,62.15
2018-06-14T04:29:01.603Z,62.33
2018-06-14T04:30:37.506Z,62.30
2018-06-14T04:32:13.372Z,62.13
2018-06-14T04:33:49.116Z,62.07
2018-06-14T04:35:24.712Z,62.14
2018-06-14T04:37:00.280Z,62.20
2018-06-14T04:38:35.894Z,62.20
2018-06-14T04:40:11.448Z,62.22
2018-06-14T04:41:46.971Z,62.51
2018-06-14T04:43:22.676Z,62.17
2018-06-14T04:45:00.717Z,62.58
2018-06-14T04:46:38.277Z,61.92
2018-06-14T04:48:14.197Z,61.59
2018-06-14T04:49:50.008Z,61.19
2018-06-14T04:51:25.677Z,61.33
2018-06-14T04:53:04.758Z,61.02
2018-06-14T04:54:41.443Z,60.73
2018-06-14T04:56:18.007Z,60.14
2018-06-14T04:57:53.604Z,60.38
2018-06-14T04:59:29.215Z,60.33
2018-06-14T05:01:06.066Z,60.27
2018-06-14T05:02:42.019Z,60.60
2018-06-14T05:04:17.587Z,61.04
2018-06-14T05:05:53.999Z,61.22
2018-06-14T05:07:29.813Z,61.42
2018-06-14T05:09:09.724Z,60.60
2018-06-14T05:10:45.475Z,60.66
2018-06-14T05:12:22.494Z,60.43
2018-06-14T05:13:58.200Z,60.26
2018-06-14T05:15:34.141Z,59.98
2018-06-14T05:17:11.031Z,59.72
2018-06-14T05:18:46.709Z,59.85
2018-06-14T05:20:22.729Z,59.98
2018-06-14T05:21:58.462Z,60.27
2018-06-14T05:23:34.140Z,60.69
2018-06-14T05:25:09.760Z,60.10
2018-06-14T05:26:45.383Z,60.18
2018-06-14T05:28:21.056Z,59.77
2018-06-14T05:29:56.686Z,59.49
2018-06-14T05:31:32.318Z,59.74
2018-06-14T05:33:07.966Z,59.72
2018-06-14T05:34:43.655Z,60.20
2018-06-14T05:36:19.269Z,59.68
2018-06-14T05:37:54.873Z,59.85
2018-06-14T05:39:30.508Z,59.55
2018-06-14T05:41:06.502Z,59.21
2018-06-14T05:42:42.245Z,59.16
2018-06-14T05:44:17.923Z,59.41
2018-06-14T05:45:53.534Z,59.52
2018-06-14T05:47:29.432Z,58.96
2018-06-14T05:49:06.548Z,59.18
2018-06-14T05:50:42.111Z,58.72
2018-06-14T05:52:17.720Z,57.33
2018-06-14T05:53:53.327Z,57.13
2018-06-14T05:55:30.095Z,56.60
2018-06-14T05:57:05.714Z,56.21
2018-06-14T05:58:41.548Z,55.39
2018-06-14T06:00:19.610Z,55.37
2018-06-14T06:01:55.237Z,55.04
2018-06-14T06:03:30.936Z,54.53
2018-06-14T06:05:06.741Z,54.35
2018-06-14T06:06:42.409Z,54.55
2018-06-14T06:08:18.024Z,54.30
2018-06-14T06:09:53.684Z,54.76
2018-06-14T06:11:29.296Z,54.76
2018-06-14T06:13:11.207Z,55.25
2018-06-14T06:14:46.845Z,54.48
2018-06-14T06:16:22.557Z,54.26
2018-06-14T06:24:18.532Z,53.03
2018-06-14T06:25:54.147Z,52.57
2018-06-14T06:27:29.843Z,52.88
2018-06-14T06:29:05.499Z,52.94
2018-06-14T06:30:41.842Z,52.38
2018-06-14T06:32:17.734Z,52.59
2018-06-14T06:33:53.355Z,51.89
2018-06-14T06:35:29.142Z,52.59
2018-06-14T06:37:04.875Z,52.15
2018-06-14T06:38:41.630Z,51.97
2018-06-14T06:40:18.112Z,51.78
2018-06-14T06:41:53.857Z,51.58
2018-06-14T06:43:29.584Z,50.85
2018-06-14T06:45:06.813Z,50.38
2018-06-14T06:46:43.834Z,49.92
2018-06-14T06:48:19.720Z,49.75
2018-06-14T06:49:55.316Z,49.18
2018-06-14T06:51:31.200Z,50.01
2018-06-14T06:53:06.992Z,49.84
2018-06-14T06:54:43.325Z,50.39
2018-06-14T06:56:19.062Z,50.52
2018-06-14T06:57:54.783Z,49.23
2018-06-14T06:59:30.467Z,48.60
2018-06-14T07:01:06.089Z,48.30
2018-06-14T07:02:41.754Z,47.83
2018-06-14T07:04:17.478Z,48.72
2018-06-14T07:05:53.187Z,47.16
2018-06-14T07:07:28.781Z,46.71
2018-06-14T07:09:07.687Z,46.41
2018-06-14T07:10:43.355Z,45.29
2018-06-14T07:12:19.097Z,45.01
2018-06-14T07:13:54.754Z,44.92
2018-06-14T07:15:30.705Z,44.70
2018-06-14T07:17:09.133Z,44.96
2018-06-14T07:18:45.752Z,45.24
2018-06-14T07:20:21.404Z,44.79
2018-06-14T07:22:01.214Z,45.29
2018-06-14T07:23:38.811Z,45.27
2018-06-14T07:25:14.553Z,44.71
2018-06-14T07:26:51.098Z,44.59
2018-06-14T07:28:26.785Z,44.38
2018-06-14T07:30:02.396Z,44.72
2018-06-14T07:31:38.072Z,44.55
2018-06-14T07:33:14.407Z,45.75
2018-06-14T07:34:50.036Z,46.01
2018-06-14T07:36:25.699Z,45.96
2018-06-14T07:38:01.383Z,45.96
2018-06-14T07:39:39.639Z,46.15
2018-06-14T07:41:15.388Z,45.02
2018-06-14T07:42:51.089Z,45.48
2018-06-14T07:44:26.826Z,46.12
2018-06-14T07:46:02.628Z,46.76
2018-06-14T07:47:38.549Z,46.83
2018-06-14T07:49:14.190Z,45.56
2018-06-14T07:50:50.399Z,45.33
2018-06-14T07:52:28.600Z,45.27
2018-06-14T07:54:04.397Z,45.72
2018-06-14T07:55:40.769Z,44.64
2018-06-14T07:57:16.609Z,44.60
2018-06-14T07:58:53.174Z,45.14
2018-06-14T08:00:29.509Z,44.56
2018-06-14T08:02:05.970Z,43.15
2018-06-14T08:03:42.777Z,41.09
2018-06-14T08:05:18.733Z,40.62
2018-06-14T08:06:54.537Z,40.41
2018-06-14T08:08:31.348Z,40.55
2018-06-14T08:10:07.661Z,40.73
2018-06-14T08:11:43.418Z,40.07
2018-06-14T08:13:19.513Z,39.71
2018-06-14T08:14:55.163Z,39.74
2018-06-14T08:16:30.849Z,40.17
2018-06-14T08:18:07.123Z,40.84
2018-06-14T08:19:44.305Z,40.19
2018-06-14T08:21:20.096Z,37.77
2018-06-14T08:22:55.668Z,37.15
2018-06-14T08:24:31.296Z,35.83
2018-06-14T08:26:13.144Z,36.12
2018-06-14T08:27:48.771Z,36.48
2018-06-14T08:29:27.872Z,35.90
2018-06-14T08:31:03.556Z,35.29
2018-06-14T08:32:39.152Z,35.91
2018-06-14T08:34:14.820Z,35.93
2018-06-14T08:35:50.444Z,36.64
2018-06-14T08:37:28.295Z,35.93
2018-06-14T08:39:05.410Z,35.04
2018-06-14T08:40:41.069Z,34.98
2018-06-14T08:42:16.640Z,35.01
2018-06-14T08:43:52.207Z,34.89
2018-06-14T08:45:27.897Z,35.67
2018-06-14T08:47:03.552Z,35.96
2018-06-14T08:48:39.499Z,35.53
2018-06-14T08:50:15.072Z,36.49
2018-06-14T08:51:50.748Z,36.44
2018-06-14T08:53:26.372Z,37.48
2018-06-14T08:55:02.307Z,37.62
2018-06-14T08:56:37.871Z,37.28
2018-06-14T08:58:13.464Z,37.29
2018-06-14T08:59:49.132Z,36.50
2018-06-14T09:01:24.740Z,38.81
2018-06-14T09:03:00.312Z,37.44
2018-06-14T09:04:35.931Z,36.92
2018-06-14T09:06:11.600Z,38.25
2018-06-14T09:07:47.219Z,38.82
2018-06-14T09:09:23.017Z,39.49
2018-06-14T09:10:58.632Z,38.92
2018-06-14T09:12:34.222Z,38.42
2018-06-14T09:14:10.578Z,38.49
2018-06-14T09:15:46.208Z,38.08
2018-06-14T09:17:21.938Z,37.92
2018-06-14T09:18:57.581Z,37.82
2018-06-14T09:20:35.299Z,37.93
2018-06-14T09:22:10.951Z,36.67
2018-06-14T09:23:46.537Z,36.59
2018-06-14T09:25:22.184Z,36.71
2018-06-14T09:26:57.786Z,36.92
2018-06-14T09:28:34.091Z,37.00
2018-06-14T09:30:09.961Z,37.17
2018-06-14T09:31:45.517Z,36.98
2018-06-14T09:33:21.089Z,37.72
2018-06-14T09:34:56.688Z,36.99
2018-06-14T09:36:33.382Z,36.53
2018-06-14T09:38:09.889Z,36.52
2018-06-14T09:39:45.551Z,36.59
2018-06-14T09:41:21.211Z,37.01
2018-06-14T09:42:56.946Z,35.64
2018-06-14T09:44:32.467Z,34.40
2018-06-14T09:46:08.086Z,34.71
2018-06-14T09:47:43.748Z,33.83
2018-06-14T09:49:19.388Z,33.52
2018-06-14T09:50:56.452Z,34.08
2018-06-14T09:52:32.176Z,34.55
2018-06-14T09:54:07.883Z,34.92
2018-06-14T09:55:43.936Z,35.61
2018-06-14T09:57:19.637Z,34.50
2018-06-14T09:58:56.985Z,34.67
2018-06-14T10:00:32.539Z,33.07
2018-06-14T10:02:07.935Z,32.76
2018-06-14T10:03:43.547Z,33.06
2018-06-14T10:05:19.242Z,32.95
2018-06-14T10:06:54.909Z,32.10
2018-06-14T10:08:30.543Z,32.32
2018-06-14T10:10:06.256Z,31.53
2018-06-14T10:11:41.885Z,31.98
2018-06-14T10:13:17.539Z,32.03
2018-06-14T10:14:53.117Z,32.69
2018-06-14T10:16:28.780Z,33.35
2018-06-14T10:18:04.396Z,32.23
2018-06-14T10:25:56.231Z,33.69
2018-06-14T10:27:32.038Z,34.84
2018-06-14T10:29:07.682Z,33.92
2018-06-14T10:30:43.286Z,33.50
2018-06-14T10:32:19.030Z,32.98
2018-06-14T10:33:54.652Z,32.84
2018-06-14T10:35:30.292Z,33.08
2018-06-14T10:37:06.369Z,32.13
2018-06-14T10:38:42.541Z,32.21
2018-06-14T10:40:18.439Z,31.40
2018-06-14T10:41:54.169Z,31.58
2018-06-14T10:43:29.953Z,31.22
2018-06-14T10:45:05.592Z,31.28
2018-06-14T10:50:53.987Z,31.12
2018-06-14T10:52:29.597Z,32.78
2018-06-14T10:54:05.249Z,32.24
2018-06-14T10:55:40.941Z,31.31
2018-06-14T10:57:17.128Z,30.96
2018-06-14T10:58:53.760Z,32.38
2018-06-14T11:00:29.580Z,31.99
2018-06-14T11:02:06.314Z,32.00
2018-06-14T11:03:43.021Z,33.15
2018-06-14T11:05:18.664Z,32.43
2018-06-14T11:06:55.265Z,32.05
2018-06-14T11:08:31.712Z,32.32
2018-06-14T11:10:07.385Z,32.46
2018-06-14T11:11:43.721Z,33.20
2018-06-14T11:13:20.664Z,33.58
2018-06-14T11:14:57.488Z,34.43
2018-06-14T11:16:33.152Z,33.40
2018-06-14T11:18:09.578Z,33.99
2018-06-14T11:19:45.482Z,34.40
2018-06-14T11:21:21.142Z,34.02
2018-06-14T11:22:56.848Z,33.83
2018-06-14T11:24:32.542Z,33.61
2018-06-14T11:26:12.509Z,33.39
2018-06-14T11:27:52.265Z,33.78
2018-06-14T11:29:28.096Z,32.60
2018-06-14T11:31:03.731Z,33.11
2018-06-14T11:32:39.468Z,33.31
2018-06-14T11:34:17.018Z,32.98
2018-06-14T11:35:56.085Z,33.41
2018-06-14T11:37:34.100Z,32.98
2018-06-14T11:39:10.820Z,33.18
2018-06-14T11:40:47.483Z,33.35
2018-06-14T11:42:23.287Z,34.49
2018-06-14T11:43:59.211Z,34.46
2018-06-14T11:45:35.157Z,34.73
2018-06-14T11:47:10.965Z,34.58
2018-06-14T11:48:47.918Z,34.71
2018-06-14T11:50:24.025Z,35.68
2018-06-14T11:51:59.770Z,33.78
2018-06-14T11:53:35.445Z,33.98
2018-06-14T11:55:11.871Z,35.46
2018-06-14T11:56:47.956Z,35.17
2018-06-14T11:58:23.595Z,35.48
2018-06-14T11:59:59.206Z,34.72
2018-06-14T12:01:35.012Z,35.61
2018-06-14T12:03:10.801Z,35.16
2018-06-14T12:04:46.516Z,35.18
2018-06-14T12:06:22.341Z,35.32
2018-06-14T12:07:57.945Z,35.01
2018-06-14T12:09:34.505Z,35.08
2018-06-14T12:11:10.693Z,36.52
2018-06-14T12:12:48.835Z,35.82
2018-06-14T12:16:30.531Z,34.76
2018-06-14T12:18:06.174Z,34.39
2018-06-14T12:19:41.770Z,34.82
2018-06-14T12:21:18.660Z,35.09
2018-06-14T12:22:55.051Z,35.48
2018-06-14T12:24:32.464Z,35.54
2018-06-14T12:26:09.140Z,35.03
2018-06-14T12:27:47.408Z,34.69
2018-06-14T12:29:23.028Z,34.61
2018-06-14T12:30:58.665Z,36.64
2018-06-14T12:32:34.331Z,35.72
2018-06-14T12:34:11.156Z,35.20
2018-06-14T12:35:46.751Z,34.88
2018-06-14T12:37:22.431Z,35.09
2018-06-14T12:38:58.040Z,35.06
2018-06-14T12:40:34.633Z,36.00
2018-06-14T12:42:10.378Z,35.07
2018-06-14T12:43:47.737Z,36.01
2018-06-14T12:45:23.395Z,34.05
2018-06-14T12:46:59.224Z,34.15
2018-06-14T12:48:34.886Z,34.89
2018-06-14T12:50:10.772Z,34.88
2018-06-14T12:51:47.857Z,34.56
2018-06-14T12:53:23.603Z,34.91
2018-06-14T12:55:13.628Z,34.73
2018-06-14T12:56:49.601Z,34.86
2018-06-14T12:58:25.603Z,35.75
2018-06-14T13:00:02.248Z,35.00
2018-06-14T13:01:37.972Z,35.30
2018-06-14T13:03:13.849Z,35.02
2018-06-14T13:04:49.571Z,35.24
2018-06-14T13:06:26.338Z,35.45
2018-06-14T13:08:02.016Z,35.84
2018-06-14T13:09:38.825Z,35.49
2018-06-14T13:11:14.561Z,34.96
2018-06-14T13:12:50.225Z,35.03
2018-06-14T13:16:49.988Z,35.00
2018-06-14T13:18:26.146Z,33.91
2018-06-14T13:20:02.548Z,33.95
2018-06-14T13:21:43.786Z,33.53
2018-06-14T13:23:20.689Z,33.03
2018-06-14T13:24:56.838Z,33.72
2018-06-14T13:26:33.844Z,33.92
2018-06-14T13:28:09.482Z,33.17
2018-06-14T13:29:45.262Z,35.38
2018-06-14T13:31:21.222Z,34.95
2018-06-14T13:32:56.941Z,34.94
2018-06-14T13:34:33.227Z,34.78
2018-06-14T13:36:15.317Z,33.74
2018-06-14T13:37:51.531Z,33.55
2018-06-14T13:39:28.291Z,35.21
2018-06-14T13:41:04.349Z,35.23
2018-06-14T13:42:41.522Z,36.35
2018-06-14T13:44:23.541Z,34.94
2018-06-14T13:45:59.207Z,35.58
2018-06-14T13:47:43.296Z,35.11
2018-06-14T13:49:20.098Z,33.29
2018-06-14T13:50:56.013Z,33.35
2018-06-14T13:52:46.557Z,34.09
2018-06-14T13:54:23.335Z,34.22
2018-06-14T13:56:02.329Z,33.60
2018-06-14T13:57:44.407Z,35.20
2018-06-14T14:01:11.756Z,34.60
2018-06-14T14:02:49.769Z,35.61
2018-06-14T14:04:27.678Z,35.52
2018-06-14T14:06:03.952Z,33.97
2018-06-14T14:07:39.617Z,35.28
2018-06-14T14:09:15.974Z,34.84
2018-06-14T14:10:52.482Z,35.28
2018-06-14T14:12:29.313Z,35.37
2018-06-14T14:14:05.166Z,35.19
2018-06-14T14:15:41.140Z,34.44
2018-06-14T14:17:18.221Z,34.75
2018-06-14T14:18:54.255Z,35.09
2018-06-14T14:20:30.944Z,35.56
2018-06-14T14:22:06.768Z,34.70
2018-06-14T14:23:42.991Z,34.45
2018-06-14T14:25:19.390Z,34.14
2018-06-14T14:26:55.005Z,34.83
2018-06-14T14:28:30.812Z,33.64
2018-06-14T14:30:06.418Z,34.10
2018-06-14T14:31:44.138Z,34.31
2018-06-14T14:33:20.918Z,34.07
2018-06-14T14:34:56.522Z,34.56
2018-06-14T14:36:32.120Z,34.63
2018-06-14T14:38:07.862Z,34.06
2018-06-14T14:39:43.985Z,33.60
2018-06-14T14:41:19.898Z,33.84
2018-06-14T14:42:55.548Z,34.09
2018-06-14T14:44:31.937Z,34.21
2018-06-14T14:46:07.539Z,33.85
2018-06-14T14:47:44.342Z,34.08
2018-06-14T14:49:20.258Z,34.48
2018-06-14T14:50:56.265Z,34.33
2018-06-14T14:52:31.992Z,34.38
2018-06-14T14:54:07.625Z,33.64
2018-06-14T14:55:43.239Z,34.27
2018-06-14T14:57:18.996Z,33.60
2018-06-14T14:58:55.436Z,34.15
2018-06-14T15:00:31.504Z,34.18
2018-06-14T15:02:08.074Z,33.31
2018-06-14T15:03:43.684Z,33.65
2018-06-14T15:05:19.392Z,34.67
2018-06-14T15:06:55.008Z,34.88
2018-06-14T15:08:30.843Z,33.84
2018-06-14T15:10:06.513Z,33.78
2018-06-14T15:11:42.470Z,34.05
2018-06-14T15:13:18.820Z,33.95
2018-06-14T15:14:54.678Z,33.49
2018-06-14T15:16:33.476Z,33.77
2018-06-14T15:18:09.191Z,34.81
2018-06-14T15:19:44.884Z,34.89
2018-06-14T15:21:20.594Z,33.56
2018-06-14T15:22:57.045Z,33.72
2018-06-14T15:24:33.820Z,33.85
2018-06-14T15:26:09.419Z,34.43
2018-06-14T15:29:52.459Z,33.87
2018-06-14T15:31:28.979Z,34.12
2018-06-14T15:33:05.857Z,34.30
2018-06-14T15:34:42.032Z,33.98
2018-06-14T15:36:18.048Z,34.77
2018-06-14T15:37:53.911Z,34.29
2018-06-14T15:39:30.956Z,33.72
2018-06-14T15:41:06.661Z,34.04
2018-06-14T15:42:42.381Z,35.17
2018-06-14T15:44:19.369Z,34.49
2018-06-14T15:45:55.024Z,34.18
2018-06-14T15:47:31.529Z,33.96
2018-06-14T15:49:08.349Z,33.99
2018-06-14T15:50:44.047Z,33.71
2018-06-14T15:52:19.818Z,33.34
2018-06-14T15:53:56.911Z,33.72
2018-06-14T15:56:01.007Z,33.34
2018-06-14T15:57:37.355Z,32.23
2018-06-14T15:59:14.653Z,33.07
2018-06-14T16:00:51.751Z,32.52
2018-06-14T16:02:28.042Z,32.48
2018-06-14T16:04:04.531Z,31.90
2018-06-14T16:05:41.702Z,32.37
2018-06-14T16:07:17.417Z,32.31
2018-06-14T16:08:53.375Z,32.94
2018-06-14T16:10:31.090Z,33.73
2018-06-14T16:12:11.582Z,33.42
2018-06-14T16:13:49.360Z,34.12
2018-06-14T16:15:25.855Z,33.07
2018-06-14T16:17:02.422Z,32.93
2018-06-14T16:18:38.452Z,32.40
2018-06-14T16:20:20.597Z,32.17
2018-06-14T16:21:57.270Z,32.33
2018-06-14T16:23:33.021Z,32.46
2018-06-14T16:25:09.179Z,31.48
2018-06-14T16:26:45.548Z,31.85
2018-06-14T16:28:27.038Z,31.57
2018-06-14T16:30:04.332Z,32.79
2018-06-14T16:31:40.074Z,31.48
2018-06-14T16:33:15.736Z,31.59
2018-06-14T16:34:51.519Z,32.21
2018-06-14T16:36:28.134Z,32.69
2018-06-14T16:38:03.961Z,35.49
2018-06-14T16:39:40.271Z,33.10
2018-06-14T16:41:16.346Z,34.42
2018-06-14T16:42:52.163Z,32.34
2018-06-14T16:44:27.797Z,33.48
2018-06-14T16:46:04.154Z,34.03
2018-06-14T16:47:39.757Z,33.46
2018-06-14T16:49:15.833Z,33.07
2018-06-14T16:50:51.517Z,33.92
2018-06-14T16:52:27.458Z,34.02
2018-06-14T16:54:03.821Z,33.77
2018-06-14T16:55:39.395Z,33.41
2018-06-14T16:57:15.237Z,33.85
2018-06-14T16:58:51.076Z,34.36
2018-06-14T17:00:26.790Z,34.36
2018-06-14T17:02:02.435Z,34.33
2018-06-14T17:03:38.170Z,34.50
2018-06-14T17:05:14.687Z,36.07
2018-06-14T17:06:50.235Z,36.67
2018-06-14T17:08:25.863Z,37.04
2018-06-14T17:10:02.352Z,37.26
2018-06-14T17:11:38.219Z,36.52
2018-06-14T17:13:14.612Z,38.57
2018-06-14T17:14:50.400Z,39.24
2018-06-14T17:16:26.322Z,39.00
2018-06-14T17:18:02.513Z,39.38
2018-06-14T17:19:38.467Z,39.65
2018-06-14T17:21:14.279Z,40.89
2018-06-14T17:22:50.177Z,41.56
2018-06-14T17:24:25.979Z,41.21
2018-06-14T17:26:06.075Z,41.98
2018-06-14T17:27:42.122Z,42.30
2018-06-14T17:29:23.396Z,43.00
2018-06-14T17:31:07.962Z,43.16
2018-06-14T17:32:44.677Z,43.39
2018-06-14T17:34:38.913Z,43.70
2018-06-14T17:36:18.567Z,44.42
2018-06-14T17:37:55.725Z,44.92
2018-06-14T17:39:33.696Z,44.44
2018-06-14T17:41:10.028Z,44.34
2018-06-14T17:42:47.806Z,44.33
2018-06-14T17:44:23.644Z,45.15
2018-06-14T17:48:19.594Z,45.29
2018-06-14T17:49:55.689Z,45.74
2018-06-14T17:51:55.130Z,45.40
2018-06-14T17:53:33.248Z,46.34
2018-06-14T17:55:10.182Z,46.19
2018-06-14T17:56:45.818Z,46.28
2018-06-14T17:58:21.776Z,45.33
2018-06-14T17:59:57.528Z,46.25
2018-06-14T18:01:33.200Z,46.03
2018-06-14T18:03:08.958Z,45.56
2018-06-14T18:04:44.804Z,45.45
2018-06-14T18:06:35.189Z,46.41
2018-06-14T18:08:17.500Z,45.95
2018-06-14T18:09:53.455Z,46.38
2018-06-14T18:11:29.192Z,46.57
2018-06-14T18:13:05.044Z,46.49
2018-06-14T18:14:40.810Z,47.20
2018-06-14T18:16:16.513Z,47.13
2018-06-14T18:18:02.280Z,47.44
2018-06-14T18:19:37.966Z,47.28
2018-06-14T18:21:13.611Z,47.43
2018-06-14T18:22:49.386Z,48.15
2018-06-14T18:24:25.050Z,47.62
2018-06-14T18:26:00.936Z,48.63
2018-06-14T18:27:37.686Z,48.23
2018-06-14T18:29:13.718Z,48.41
2018-06-14T18:30:49.334Z,48.86
2018-06-14T18:32:25.153Z,49.39
2018-06-14T18:34:00.964Z,48.90
2018-06-14T18:35:37.236Z,49.05
2018-06-14T18:37:13.692Z,49.25
2018-06-14T18:38:49.381Z,49.89
2018-06-14T18:40:25.285Z,49.83
2018-06-14T18:42:01.287Z,49.78
2018-06-14T18:43:37.130Z,49.52
2018-06-14T18:45:12.952Z,49.79
2018-06-14T18:46:49.033Z,49.83
2018-06-14T18:48:24.976Z,49.72
2018-06-14T18:50:00.792Z,49.72
2018-06-14T18:51:36.864Z,49.49
2018-06-14T18:53:13.745Z,49.96
2018-06-14T18:54:49.617Z,49.59
2018-06-14T18:56:25.902Z,49.71
2018-06-14T18:58:01.742Z,49.09
2018-06-14T18:59:40.996Z,49.06
2018-06-14T19:01:17.174Z,49.44
2018-06-14T19:02:54.481Z,49.98
2018-06-14T19:04:30.259Z,49.85
2018-06-14T19:06:07.234Z,50.10
2018-06-14T19:07:43.753Z,50.25
2018-06-14T19:09:19.616Z,50.54
2018-06-14T19:10:56.312Z,50.45
2018-06-14T19:12:32.180Z,50.59
2018-06-14T19:14:08.755Z,50.42
2018-06-14T19:15:45.462Z,50.96
2018-06-14T19:17:22.479Z,50.96
2018-06-14T19:18:58.976Z,51.20
2018-06-14T19:20:36.642Z,50.77
2018-06-14T19:22:12.625Z,50.92
2018-06-14T19:23:51.077Z,51.82
2018-06-14T19:25:27.047Z,51.85
2018-06-14T19:27:03.662Z,52.05
2018-06-14T19:28:39.352Z,52.22
2018-06-14T19:30:15.261Z,52.56
2018-06-14T19:31:51.984Z,51.27
2018-06-14T19:33:28.005Z,50.00
2018-06-14T19:35:05.871Z,50.30
2018-06-14T19:38:37.800Z,52.96
2018-06-14T19:40:21.947Z,53.19
2018-06-14T19:42:06.286Z,52.79
2018-06-14T19:43:42.214Z,53.06
2018-06-14T19:45:21.779Z,52.70
2018-06-14T19:46:58.897Z,52.44
2018-06-14T19:48:35.621Z,52.65
2018-06-14T19:50:12.748Z,52.91
2018-06-14T19:53:54.659Z,54.24
2018-06-14T19:55:30.879Z,54.92
2018-06-14T19:57:07.222Z,55.32
2018-06-14T19:58:42.949Z,55.46
2018-06-14T20:00:19.450Z,55.71
2018-06-14T20:01:56.014Z,55.69
2018-06-14T20:03:31.934Z,55.62
2018-06-14T20:05:08.105Z,55.86
2018-06-14T20:06:45.847Z,55.41
2018-06-14T20:08:25.571Z,55.68
2018-06-14T20:10:02.607Z,55.40
2018-06-14T20:11:38.670Z,55.54
2018-06-14T20:13:15.788Z,55.61
2018-06-14T20:15:00.571Z,55.23
2018-06-14T20:16:38.393Z,54.84
2018-06-14T20:20:24.111Z,54.76
2018-06-14T20:21:59.923Z,55.00
2018-06-14T20:23:35.748Z,54.74
2018-06-14T20:25:11.843Z,54.33
2018-06-14T20:26:52.186Z,54.25
2018-06-14T20:28:28.118Z,54.29
2018-06-14T20:30:03.717Z,54.32
2018-06-14T20:31:39.563Z,54.29
2018-06-14T20:33:15.259Z,54.42
2018-06-14T20:34:50.969Z,54.38
2018-06-14T20:36:26.672Z,54.30
2018-06-14T20:38:02.413Z,54.33
2018-06-14T20:39:38.240Z,54.17
2018-06-14T20:41:14.297Z,54.14
2018-06-14T20:42:50.026Z,54.30
2018-06-14T20:44:25.866Z,53.94
2018-06-14T20:46:01.696Z,54.14
2018-06-14T20:47:37.481Z,54.15
2018-06-14T20:49:13.303Z,54.30
2018-06-14T20:50:49.297Z,54.57
2018-06-14T20:52:24.968Z,54.76
2018-06-14T20:54:00.970Z,54.46
2018-06-14T20:55:36.964Z,54.47
2018-06-14T20:57:12.918Z,54.47
2018-06-14T20:58:49.455Z,54.24
2018-06-14T21:00:25.250Z,54.53
2018-06-14T21:02:05.003Z,54.43
2018-06-14T21:03:41.503Z,54.11
2018-06-14T21:05:17.579Z,54.60
2018-06-14T21:06:54.271Z,54.75
2018-06-14T21:08:30.564Z,55.05
2018-06-14T21:10:06.350Z,55.10
2018-06-14T21:11:42.126Z,55.48
2018-06-14T21:13:17.929Z,56.05
2018-06-14T21:14:53.693Z,56.24